createdAt,value
2023-01-11T00:02:00.616Z,6.79
2023-01-11T00:05:49.799Z,6.85
2023-01-11T00:09:38.899Z,6.87
2023-01-11T00:13:27.936Z,6.87
2023-01-11T00:17:17.002Z,6.91
2023-01-11T00:21:06.213Z,6.89
2023-01-11T00:24:55.289Z,6.83
2023-01-11T00:28:44.398Z,6.76
2023-01-11T00:32:33.445Z,6.75
2023-01-11T00:36:22.611Z,6.72
2023-01-11T00:40:11.671Z,6.72
2023-01-11T00:43:59.368Z,6.71
2023-01-11T00:47:52.751Z,6.69
2023-01-11T00:51:41.859Z,6.68
2023-01-11T00:55:30.943Z,6.68
2023-01-11T00:59:20.039Z,6.70
2023-01-11T01:03:09.120Z,6.77
2023-01-11T01:06:58.438Z,6.78
2023-01-11T01:10:47.732Z,6.77
2023-01-11T01:14:48.980Z,6.81
2023-01-11T01:18:38.083Z,6.87
2023-01-11T01:22:27.183Z,6.86
2023-01-11T01:26:16.347Z,6.84
2023-01-11T01:30:05.432Z,6.81
2023-01-11T01:33:54.486Z,6.76
2023-01-11T01:37:46.223Z,6.78
2023-01-11T01:41:35.285Z,6.78
2023-01-11T01:45:29.447Z,6.77
2023-01-11T01:49:18.583Z,6.74
2023-01-11T01:53:07.621Z,6.74
2023-01-11T01:56:56.700Z,6.75
2023-01-11T02:00:45.974Z,6.74
2023-01-11T02:04:35.055Z,6.73
2023-01-11T02:08:24.237Z,6.71
2023-01-11T02:12:13.259Z,6.68
2023-01-11T02:16:02.392Z,6.66
2023-01-11T02:19:51.482Z,6.72
2023-01-11T02:23:55.709Z,6.77
2023-01-11T02:27:46.290Z,6.78
2023-01-11T02:31:53.671Z,6.76
2023-01-11T02:36:01.362Z,6.71
2023-01-11T02:40:11.481Z,6.63
2023-01-11T02:44:20.101Z,6.63
2023-01-11T02:48:18.129Z,6.64
2023-01-11T02:52:07.205Z,6.68
2023-01-11T02:55:56.303Z,6.73
2023-01-11T02:59:45.382Z,6.75
2023-01-11T03:03:46.397Z,6.74
2023-01-11T03:07:35.450Z,6.70
2023-01-11T03:11:27.340Z,6.65
2023-01-11T03:15:22.416Z,6.63
2023-01-11T03:19:17.242Z,6.64
2023-01-11T03:23:12.118Z,6.70
2023-01-11T03:27:01.207Z,6.75
2023-01-11T03:30:53.337Z,6.77
2023-01-11T03:34:57.359Z,6.73
2023-01-11T03:39:01.896Z,6.62
2023-01-11T03:42:51.007Z,6.53
2023-01-11T03:46:45.775Z,6.46
2023-01-11T03:50:43.677Z,6.48
2023-01-11T03:54:32.718Z,6.47
2023-01-11T03:58:21.815Z,6.42
2023-01-11T04:02:10.894Z,6.35
2023-01-11T04:06:00.050Z,6.28
2023-01-11T04:09:49.155Z,6.26
2023-01-11T04:13:38.231Z,6.29
2023-01-11T04:17:27.259Z,6.30
2023-01-11T04:21:16.323Z,6.32
2023-01-11T04:25:05.454Z,6.29
2023-01-11T04:28:54.638Z,6.29
2023-01-11T04:32:43.701Z,6.30
2023-01-11T04:36:32.763Z,6.33
2023-01-11T04:40:14.350Z,6.35
2023-01-11T04:44:03.600Z,6.41
2023-01-11T04:47:52.696Z,6.47
2023-01-11T04:51:41.853Z,6.49
2023-01-11T04:55:30.948Z,6.50
2023-01-11T04:59:20.003Z,6.51
2023-01-11T05:03:09.122Z,6.47
2023-01-11T05:06:58.212Z,6.42
2023-01-11T05:10:47.352Z,6.39
2023-01-11T05:14:36.605Z,6.33
2023-01-11T05:18:25.657Z,6.28
2023-01-11T05:22:13.594Z,6.27
2023-01-11T05:26:02.715Z,6.25
2023-01-11T05:29:44.817Z,6.26
2023-01-11T05:33:33.947Z,6.27
2023-01-11T05:37:23.104Z,6.27
2023-01-11T05:41:12.474Z,6.31
2023-01-11T05:45:00.298Z,6.34
2023-01-11T05:48:49.399Z,6.36
2023-01-11T05:52:38.447Z,6.36
2023-01-11T05:56:36.417Z,6.35
2023-01-11T06:00:25.472Z,6.37
2023-01-11T06:04:14.552Z,6.40
2023-01-11T06:08:03.635Z,6.41
2023-01-11T06:11:52.719Z,6.48
2023-01-11T06:15:41.797Z,6.51
2023-01-11T06:19:30.918Z,6.55
2023-01-11T06:23:20.033Z,6.58
2023-01-11T06:27:09.142Z,6.59
2023-01-11T06:30:58.330Z,6.65
2023-01-11T06:34:47.422Z,6.76
2023-01-11T06:38:36.618Z,6.80
2023-01-11T06:42:25.686Z,6.80
2023-01-11T06:46:14.932Z,6.78
2023-01-11T06:50:04.043Z,6.78
2023-01-11T06:53:55.971Z,6.76
2023-01-11T06:57:45.038Z,6.73
2023-01-11T07:01:34.139Z,6.75
2023-01-11T07:05:23.569Z,6.79
2023-01-11T07:09:12.658Z,6.81
2023-01-11T07:13:01.688Z,6.85
2023-01-11T07:16:50.821Z,6.86
2023-01-11T07:20:39.900Z,6.88
2023-01-11T07:24:28.946Z,6.92
2023-01-11T07:28:18.038Z,6.97
2023-01-11T07:32:07.118Z,7.06
2023-01-11T07:35:56.277Z,7.15
2023-01-11T07:39:45.412Z,7.26
2023-01-11T07:43:37.270Z,7.45
2023-01-11T07:47:26.461Z,7.68
2023-01-11T07:51:15.662Z,7.86
2023-01-11T07:55:04.746Z,8.01
2023-01-11T07:58:53.815Z,8.11
2023-01-11T08:02:43.043Z,8.16
2023-01-11T08:06:32.214Z,8.13
2023-01-11T08:10:21.283Z,8.14
2023-01-11T08:14:09.027Z,8.15
2023-01-11T08:17:58.221Z,8.23
2023-01-11T08:21:47.308Z,8.28
2023-01-11T08:25:36.397Z,8.29
2023-01-11T08:29:24.565Z,8.29
2023-01-11T08:33:14.005Z,8.30
2023-01-11T08:37:05.877Z,8.31
2023-01-11T08:40:55.001Z,8.40
2023-01-11T08:44:38.197Z,8.48
2023-01-11T08:48:27.638Z,8.62
2023-01-11T08:52:16.701Z,8.76
2023-01-11T08:56:05.894Z,8.86
2023-01-11T08:59:54.980Z,8.91
2023-01-11T09:03:44.058Z,8.92
2023-01-11T09:07:33.209Z,8.93
2023-01-11T09:11:22.268Z,8.93
2023-01-11T09:15:11.326Z,8.92
2023-01-11T09:19:00.556Z,8.90
2023-01-11T09:22:52.600Z,8.86
2023-01-11T09:26:41.952Z,8.82
2023-01-11T09:30:23.403Z,8.79
2023-01-11T09:34:12.467Z,8.70
2023-01-11T09:38:01.564Z,8.65
2023-01-11T09:41:49.069Z,8.60
2023-01-11T09:45:40.879Z,8.57
2023-01-11T09:49:33.063Z,8.55
2023-01-11T09:53:31.190Z,8.54
2023-01-11T09:57:23.001Z,8.52
2023-01-11T10:01:12.236Z,8.53
2023-01-11T10:05:18.207Z,8.55
2023-01-11T10:18:40.119Z,8.67
2023-01-11T10:22:10.301Z,8.70
2023-01-11T10:26:11.400Z,8.75
2023-01-11T10:30:02.999Z,8.80
2023-01-11T10:33:58.033Z,8.84
2023-01-11T10:38:11.163Z,8.90
2023-01-11T10:42:00.286Z,8.94
2023-01-11T10:50:10.154Z,8.99
2023-01-11T10:58:02.335Z,9.02
2023-01-11T11:02:08.067Z,9.02
2023-01-11T11:06:24.926Z,9.00
2023-01-11T11:10:20.241Z,8.98
2023-01-11T11:14:23.265Z,8.98
2023-01-11T11:18:24.415Z,8.99
2023-01-11T11:22:22.531Z,9.02
2023-01-11T11:26:17.334Z,9.05
2023-01-11T11:30:06.464Z,9.05
2023-01-11T11:33:55.571Z,9.11
2023-01-11T11:37:44.417Z,9.15
2023-01-11T11:41:48.555Z,9.18
2023-01-11T11:45:49.683Z,9.26
2023-01-11T11:49:51.180Z,9.35
2023-01-11T11:53:43.211Z,9.39
2023-01-11T11:57:35.097Z,9.40
2023-01-11T12:01:19.519Z,9.39
2023-01-11T12:05:18.400Z,9.37
2023-01-11T12:09:07.516Z,9.39
2023-01-11T12:12:56.664Z,9.48
2023-01-11T12:16:45.856Z,9.77
2023-01-11T12:20:34.985Z,10.04
2023-01-11T12:24:16.757Z,10.11
2023-01-11T12:28:11.617Z,10.11
2023-01-11T12:32:16.136Z,10.19
2023-01-11T12:36:29.683Z,10.14
2023-01-11T12:40:21.765Z,10.05
2023-01-11T12:44:22.759Z,9.94
2023-01-11T12:48:09.214Z,9.87
2023-01-11T12:51:55.911Z,9.82
2023-01-11T12:55:24.657Z,9.75
2023-01-11T12:59:19.423Z,9.79
2023-01-11T13:03:11.316Z,9.73
2023-01-11T13:07:09.392Z,9.66
2023-01-11T13:11:10.581Z,9.52
2023-01-11T13:15:08.617Z,9.43
2023-01-11T13:19:06.790Z,9.34
2023-01-11T13:22:55.876Z,9.27
2023-01-11T13:26:38.684Z,9.23
2023-01-11T13:30:30.584Z,9.26
2023-01-11T13:34:19.663Z,9.38
2023-01-11T13:38:08.762Z,9.41
2023-01-11T13:42:02.681Z,9.43
2023-01-11T13:46:06.967Z,9.44
2023-01-11T13:49:58.712Z,9.44
2023-01-11T13:53:59.333Z,9.45
2023-01-11T13:57:47.339Z,9.43
2023-01-11T14:01:39.434Z,9.50
2023-01-11T14:05:31.534Z,9.50
2023-01-11T14:09:23.427Z,9.44
2023-01-11T14:13:27.997Z,9.39
2023-01-11T14:17:17.041Z,9.27
2023-01-11T14:21:15.227Z,9.21
2023-01-11T14:25:04.313Z,9.14
2023-01-11T14:28:56.181Z,9.05
2023-01-11T14:32:54.138Z,8.93
2023-01-11T14:36:49.308Z,8.78
2023-01-11T14:40:44.210Z,8.64
2023-01-11T14:44:41.511Z,8.51
2023-01-11T14:48:48.233Z,8.28
2023-01-11T14:52:46.723Z,7.94
2023-01-11T14:56:35.803Z,7.68
2023-01-11T15:00:24.872Z,7.48
2023-01-11T15:04:13.942Z,7.31
2023-01-11T15:08:11.998Z,7.11
2023-01-11T15:12:01.132Z,6.90
2023-01-11T15:15:51.551Z,6.67
2023-01-11T15:19:40.638Z,6.42
2023-01-11T15:23:38.576Z,6.16
2023-01-11T15:27:27.665Z,5.89
2023-01-11T15:31:19.609Z,5.64
2023-01-11T15:35:24.065Z,5.39
2023-01-11T15:39:28.101Z,5.21
2023-01-11T15:43:28.823Z,5.08
2023-01-11T15:47:15.263Z,4.95
2023-01-11T15:51:07.096Z,4.82
2023-01-11T15:55:05.139Z,4.66
2023-01-11T15:59:08.454Z,4.51
2023-01-11T16:03:14.444Z,4.34
2023-01-11T16:07:03.504Z,4.25
2023-01-11T16:11:10.566Z,4.13
2023-01-11T16:14:59.649Z,4.01
2023-01-11T16:18:51.410Z,3.89
2023-01-11T16:22:40.463Z,3.74
2023-01-11T16:26:29.556Z,3.64
2023-01-11T16:30:18.621Z,3.51
2023-01-11T16:34:22.865Z,3.43
2023-01-11T16:38:20.777Z,3.38
2023-01-11T16:42:09.878Z,3.33
2023-01-11T16:46:01.553Z,3.29
2023-01-11T16:49:50.738Z,3.25
2023-01-11T16:53:54.798Z,3.18
2023-01-11T16:57:43.913Z,3.12
2023-01-11T17:01:33.041Z,3.09
2023-01-11T17:05:40.522Z,3.11
2023-01-11T17:09:35.435Z,3.11
2023-01-11T17:13:27.360Z,3.06
2023-01-11T17:17:22.135Z,2.99
2023-01-11T17:21:20.308Z,2.84
2023-01-11T17:25:09.379Z,2.74
2023-01-11T17:28:58.470Z,2.73
2023-01-11T17:32:47.564Z,2.80
2023-01-11T17:36:36.637Z,2.86
2023-01-11T17:40:25.724Z,2.91
2023-01-11T17:44:23.337Z,2.95
2023-01-11T17:48:12.422Z,3.04
2023-01-11T17:52:07.302Z,3.14
2023-01-11T17:56:02.443Z,3.21
2023-01-11T18:00:00.269Z,3.20
2023-01-11T18:03:49.313Z,3.18
2023-01-11T18:07:56.719Z,3.18
2023-01-11T18:11:45.840Z,3.13
2023-01-11T18:15:34.944Z,3.14
2023-01-11T18:19:25.979Z,3.20
2023-01-11T18:23:39.495Z,3.25
2023-01-11T18:27:28.537Z,3.27
2023-01-11T18:31:32.811Z,3.27
2023-01-11T18:35:21.903Z,3.23
2023-01-11T18:39:20.225Z,3.20
2023-01-11T18:43:09.350Z,3.16
2023-01-11T18:46:58.407Z,3.18
2023-01-11T18:50:47.594Z,3.24
2023-01-11T18:54:37.776Z,3.25
2023-01-11T18:58:26.852Z,3.24
2023-01-11T19:02:17.625Z,3.23
2023-01-11T19:06:07.436Z,3.24
2023-01-11T19:09:56.708Z,3.30
2023-01-11T19:13:46.863Z,3.34
2023-01-11T19:17:36.371Z,3.37
2023-01-11T19:21:25.467Z,3.36
2023-01-11T19:25:14.480Z,3.34
2023-01-11T19:29:03.558Z,3.29
2023-01-11T19:32:52.774Z,3.28
2023-01-11T19:36:41.868Z,3.28
2023-01-11T19:40:31.096Z,3.27
2023-01-11T19:44:20.178Z,3.23
2023-01-11T19:48:08.976Z,3.16
2023-01-11T19:52:06.982Z,3.05
2023-01-11T19:55:56.087Z,2.93
2023-01-11T19:59:45.200Z,2.84
2023-01-11T20:03:34.308Z,2.78
2023-01-11T20:07:23.344Z,2.68
2023-01-11T20:11:12.416Z,2.60
2023-01-11T20:15:01.504Z,2.53
2023-01-11T20:18:50.556Z,2.43
2023-01-11T20:22:39.618Z,2.35
2023-01-11T20:26:28.700Z,2.29
2023-01-11T20:30:17.787Z,2.27
2023-01-11T20:34:06.843Z,2.27
2023-01-11T20:37:55.979Z,2.26
2023-01-11T20:41:46.207Z,2.24
2023-01-11T20:45:35.258Z,2.18
2023-01-11T20:49:24.307Z,2.09
2023-01-11T20:53:13.444Z,2.09
2023-01-11T20:57:03.610Z,2.12
2023-01-11T21:00:52.739Z,2.14
2023-01-11T21:04:41.882Z,2.12
2023-01-11T21:08:30.996Z,2.09
2023-01-11T21:12:20.186Z,2.04
2023-01-11T21:16:09.353Z,1.98
2023-01-11T21:19:58.411Z,1.91
2023-01-11T21:23:47.469Z,1.87
2023-01-11T21:27:36.556Z,1.82
2023-01-11T21:31:25.715Z,1.73
2023-01-11T21:35:14.880Z,1.62
2023-01-11T21:39:03.999Z,1.55
2023-01-11T21:42:53.516Z,1.52
2023-01-11T21:46:42.705Z,1.49
2023-01-11T21:50:31.823Z,1.45
2023-01-11T21:54:20.913Z,1.37
2023-01-11T21:58:09.995Z,1.28
2023-01-11T22:01:59.039Z,1.19
2023-01-11T22:05:48.350Z,1.12
2023-01-11T22:09:37.587Z,1.06
2023-01-11T22:13:26.740Z,1.01
2023-01-11T22:17:15.944Z,0.96
2023-01-11T22:21:05.194Z,0.86
2023-01-11T22:24:54.310Z,0.65
2023-01-11T22:28:43.357Z,0.62
2023-01-11T22:32:32.455Z,0.63
2023-01-11T22:36:21.538Z,0.61
2023-01-11T22:40:10.631Z,0.56
2023-01-11T22:43:59.785Z,0.50
2023-01-11T22:47:48.869Z,0.42
2023-01-11T22:51:37.910Z,0.39
2023-01-11T22:55:27.008Z,0.39
2023-01-11T22:59:16.102Z,0.38
2023-01-11T23:03:05.329Z,0.36
2023-01-11T23:06:54.475Z,0.32
2023-01-11T23:10:43.514Z,0.25
2023-01-11T23:14:32.812Z,0.24
2023-01-11T23:18:22.056Z,0.23
2023-01-11T23:22:11.151Z,0.20
2023-01-11T23:26:00.203Z,0.14
2023-01-11T23:29:49.279Z,0.08
2023-01-11T23:33:38.343Z,0.03
2023-01-11T23:37:27.454Z,0.01
2023-01-11T23:41:15.227Z,0.01
2023-01-11T23:45:07.201Z,-0.01
2023-01-11T23:48:56.319Z,-0.05
2023-01-11T23:52:45.405Z,-0.10
2023-01-11T23:56:34.568Z,-0.15
